<?xml version="1.0" encoding="UTF-8" standalone="no" ?>
<gpx xmlns="http://www.topografix.com/GPX/1/1" xmlns:xsi="http://www.w3.org/2001/XMLSchema-instance" xsi:schemaLocation="http://www.topografix.com/GPX/1/1 http://www.topografix.com/GPX/1/1/gpx.xsd" version="1.1" creator="VisuGPX - https://www.visugpx.com">
  <metadata>
    <name>GR20 etape 15</name>
  </metadata>
  <trk>
    <name><![CDATA[GR20 Traversée de la Corse (2020)]]></name>
    <trkseg>
      <trkpt lat="41.84188" lon="9.21341">
        <ele>1567.42</ele>
        <time>2020-03-20T00:08:40Z</time>
      </trkpt>
      <trkpt lat="41.84168" lon="9.21406">
        <ele>1556.843</ele>
        <time>2020-03-20T00:09:00Z</time>
      </trkpt>
      <trkpt lat="41.84152" lon="9.21416">
        <ele>1540.689</ele>
        <time>2020-03-20T00:09:20Z</time>
      </trkpt>
      <trkpt lat="41.84135" lon="9.21345">
        <ele>1537.299</ele>
        <time>2020-03-20T00:09:40Z</time>
      </trkpt>
      <trkpt lat="41.84115" lon="9.21319">
        <ele>1539.707</ele>
        <time>2020-03-20T00:10:00Z</time>
      </trkpt>
      <trkpt lat="41.84102" lon="9.21293">
        <ele>1540.527</ele>
        <time>2020-03-20T00:10:20Z</time>
      </trkpt>
      <trkpt lat="41.84067" lon="9.21286">
        <ele>1521.808</ele>
        <time>2020-03-20T00:10:40Z</time>
      </trkpt>
      <trkpt lat="41.84054" lon="9.21288">
        <ele>1519.923</ele>
        <time>2020-03-20T00:11:00Z</time>
      </trkpt>
      <trkpt lat="41.84028" lon="9.21262">
        <ele>1518.746</ele>
        <time>2020-03-20T00:11:20Z</time>
      </trkpt>
      <trkpt lat="41.84032" lon="9.21233">
        <ele>1531.348</ele>
        <time>2020-03-20T00:11:40Z</time>
      </trkpt>
      <trkpt lat="41.84002" lon="9.21208">
        <ele>1530.966</ele>
        <time>2020-03-20T00:12:00Z</time>
      </trkpt>
      <trkpt lat="41.83986" lon="9.21169">
        <ele>1521.13</ele>
        <time>2020-03-20T00:12:20Z</time>
      </trkpt>
      <trkpt lat="41.83915" lon="9.21169">
        <ele>1499.224</ele>
        <time>2020-03-20T00:12:40Z</time>
      </trkpt>
      <trkpt lat="41.83897" lon="9.21182">
        <ele>1488.577</ele>
        <time>2020-03-20T00:13:00Z</time>
      </trkpt>
      <trkpt lat="41.83867" lon="9.21171">
        <ele>1481.063</ele>
        <time>2020-03-20T00:13:20Z</time>
      </trkpt>
      <trkpt lat="41.83815" lon="9.21177">
        <ele>1459.722</ele>
        <time>2020-03-20T00:13:40Z</time>
      </trkpt>
      <trkpt lat="41.83795" lon="9.21197">
        <ele>1453.462</ele>
        <time>2020-03-20T00:14:00Z</time>
      </trkpt>
      <trkpt lat="41.83774" lon="9.21181">
        <ele>1449.808</ele>
        <time>2020-03-20T00:14:20Z</time>
      </trkpt>
      <trkpt lat="41.83771" lon="9.21193">
        <ele>1449.508</ele>
        <time>2020-03-20T00:14:40Z</time>
      </trkpt>
      <trkpt lat="41.83745" lon="9.21197">
        <ele>1432.156</ele>
        <time>2020-03-20T00:15:00Z</time>
      </trkpt>
      <trkpt lat="41.83739" lon="9.2122">
        <ele>1429.589</ele>
        <time>2020-03-20T00:15:20Z</time>
      </trkpt>
      <trkpt lat="41.83741" lon="9.21268">
        <ele>1424.721</ele>
        <time>2020-03-20T00:15:40Z</time>
      </trkpt>
      <trkpt lat="41.83721" lon="9.21294">
        <ele>1419.589</ele>
        <time>2020-03-20T00:16:00Z</time>
      </trkpt>
      <trkpt lat="41.83692" lon="9.21312">
        <ele>1413.413</ele>
        <time>2020-03-20T00:16:20Z</time>
      </trkpt>
      <trkpt lat="41.83674" lon="9.2134">
        <ele>1401.217</ele>
        <time>2020-03-20T00:16:40Z</time>
      </trkpt>
      <trkpt lat="41.83661" lon="9.21336">
        <ele>1395.14</ele>
        <time>2020-03-20T00:17:00Z</time>
      </trkpt>
      <trkpt lat="41.83649" lon="9.21355">
        <ele>1384.736</ele>
        <time>2020-03-20T00:17:20Z</time>
      </trkpt>
      <trkpt lat="41.83596" lon="9.21377">
        <ele>1374.484</ele>
        <time>2020-03-20T00:17:40Z</time>
      </trkpt>
      <trkpt lat="41.83575" lon="9.21373">
        <ele>1360.407</ele>
        <time>2020-03-20T00:18:00Z</time>
      </trkpt>
      <trkpt lat="41.83525" lon="9.21389">
        <ele>1354.117</ele>
        <time>2020-03-20T00:18:20Z</time>
      </trkpt>
      <trkpt lat="41.83506" lon="9.21385">
        <ele>1352.508</ele>
        <time>2020-03-20T00:18:40Z</time>
      </trkpt>
      <trkpt lat="41.83497" lon="9.21417">
        <ele>1344.512</ele>
        <time>2020-03-20T00:19:00Z</time>
      </trkpt>
      <trkpt lat="41.8348" lon="9.21425">
        <ele>1342.385</ele>
        <time>2020-03-20T00:19:20Z</time>
      </trkpt>
      <trkpt lat="41.83472" lon="9.21443">
        <ele>1341.767</ele>
        <time>2020-03-20T00:19:40Z</time>
      </trkpt>
      <trkpt lat="41.83437" lon="9.21457">
        <ele>1340.365</ele>
        <time>2020-03-20T00:20:00Z</time>
      </trkpt>
      <trkpt lat="41.83391" lon="9.21461">
        <ele>1338.869</ele>
        <time>2020-03-20T00:20:20Z</time>
      </trkpt>
      <trkpt lat="41.83363" lon="9.21453">
        <ele>1338.133</ele>
        <time>2020-03-20T00:20:40Z</time>
      </trkpt>
      <trkpt lat="41.83322" lon="9.21413">
        <ele>1326.156</ele>
        <time>2020-03-20T00:21:00Z</time>
      </trkpt>
      <trkpt lat="41.83263" lon="9.2137">
        <ele>1325.382</ele>
        <time>2020-03-20T00:21:20Z</time>
      </trkpt>
      <trkpt lat="41.83244" lon="9.21344">
        <ele>1323.762</ele>
        <time>2020-03-20T00:21:40Z</time>
      </trkpt>
      <trkpt lat="41.83205" lon="9.21314">
        <ele>1319.083</ele>
        <time>2020-03-20T00:22:00Z</time>
      </trkpt>
      <trkpt lat="41.83169" lon="9.2131">
        <ele>1323.011</ele>
        <time>2020-03-20T00:22:20Z</time>
      </trkpt>
      <trkpt lat="41.83117" lon="9.21317">
        <ele>1336.908</ele>
        <time>2020-03-20T00:22:40Z</time>
      </trkpt>
      <trkpt lat="41.83091" lon="9.2127">
        <ele>1334.99</ele>
        <time>2020-03-20T00:23:00Z</time>
      </trkpt>
      <trkpt lat="41.8307" lon="9.21256">
        <ele>1340.073</ele>
        <time>2020-03-20T00:23:20Z</time>
      </trkpt>
      <trkpt lat="41.83052" lon="9.21251">
        <ele>1342.695</ele>
        <time>2020-03-20T00:23:40Z</time>
      </trkpt>
      <trkpt lat="41.8303" lon="9.21235">
        <ele>1329.313</ele>
        <time>2020-03-20T00:24:00Z</time>
      </trkpt>
      <trkpt lat="41.82963" lon="9.21251">
        <ele>1351.957</ele>
        <time>2020-03-20T00:24:20Z</time>
      </trkpt>
      <trkpt lat="41.82935" lon="9.21215">
        <ele>1333.641</ele>
        <time>2020-03-20T00:24:40Z</time>
      </trkpt>
      <trkpt lat="41.82904" lon="9.21208">
        <ele>1343.264</ele>
        <time>2020-03-20T00:25:00Z</time>
      </trkpt>
      <trkpt lat="41.82869" lon="9.21184">
        <ele>1343.67</ele>
        <time>2020-03-20T00:25:20Z</time>
      </trkpt>
      <trkpt lat="41.82817" lon="9.21179">
        <ele>1350.243</ele>
        <time>2020-03-20T00:25:40Z</time>
      </trkpt>
      <trkpt lat="41.82787" lon="9.212">
        <ele>1354.864</ele>
        <time>2020-03-20T00:26:00Z</time>
      </trkpt>
      <trkpt lat="41.82757" lon="9.21243">
        <ele>1367.31</ele>
        <time>2020-03-20T00:26:20Z</time>
      </trkpt>
      <trkpt lat="41.82718" lon="9.21277">
        <ele>1388.408</ele>
        <time>2020-03-20T00:26:40Z</time>
      </trkpt>
      <trkpt lat="41.82672" lon="9.21271">
        <ele>1387.698</ele>
        <time>2020-03-20T00:27:00Z</time>
      </trkpt>
      <trkpt lat="41.8265" lon="9.21251">
        <ele>1393.121</ele>
        <time>2020-03-20T00:27:20Z</time>
      </trkpt>
      <trkpt lat="41.82624" lon="9.21196">
        <ele>1379.933</ele>
        <time>2020-03-20T00:27:40Z</time>
      </trkpt>
      <trkpt lat="41.82598" lon="9.21171">
        <ele>1379.771</ele>
        <time>2020-03-20T00:28:00Z</time>
      </trkpt>
      <trkpt lat="41.82564" lon="9.21163">
        <ele>1374.695</ele>
        <time>2020-03-20T00:28:20Z</time>
      </trkpt>
      <trkpt lat="41.82517" lon="9.21158">
        <ele>1379.939</ele>
        <time>2020-03-20T00:28:40Z</time>
      </trkpt>
      <trkpt lat="41.82407" lon="9.211">
        <ele>1378.662</ele>
        <time>2020-03-20T00:29:00Z</time>
      </trkpt>
      <trkpt lat="41.82359" lon="9.2107">
        <ele>1360.378</ele>
        <time>2020-03-20T00:29:20Z</time>
      </trkpt>
      <trkpt lat="41.82311" lon="9.21055">
        <ele>1365.679</ele>
        <time>2020-03-20T00:29:40Z</time>
      </trkpt>
      <trkpt lat="41.82288" lon="9.21057">
        <ele>1368.005</ele>
        <time>2020-03-20T00:30:00Z</time>
      </trkpt>
      <trkpt lat="41.82233" lon="9.21027">
        <ele>1372.025</ele>
        <time>2020-03-20T00:30:20Z</time>
      </trkpt>
      <trkpt lat="41.82178" lon="9.2098">
        <ele>1350.608</ele>
        <time>2020-03-20T00:30:40Z</time>
      </trkpt>
      <trkpt lat="41.82129" lon="9.2096">
        <ele>1347.761</ele>
        <time>2020-03-20T00:31:00Z</time>
      </trkpt>
      <trkpt lat="41.82051" lon="9.20941">
        <ele>1346.844</ele>
        <time>2020-03-20T00:31:20Z</time>
      </trkpt>
      <trkpt lat="41.82017" lon="9.20951">
        <ele>1348.296</ele>
        <time>2020-03-20T00:31:40Z</time>
      </trkpt>
      <trkpt lat="41.8193" lon="9.20952">
        <ele>1341.344</ele>
        <time>2020-03-20T00:32:00Z</time>
      </trkpt>
      <trkpt lat="41.81878" lon="9.20932">
        <ele>1340.898</ele>
        <time>2020-03-20T00:32:20Z</time>
      </trkpt>
      <trkpt lat="41.81837" lon="9.20903">
        <ele>1328.652</ele>
        <time>2020-03-20T00:32:40Z</time>
      </trkpt>
      <trkpt lat="41.81802" lon="9.20852">
        <ele>1331.475</ele>
        <time>2020-03-20T00:33:00Z</time>
      </trkpt>
      <trkpt lat="41.81793" lon="9.20782">
        <ele>1312.751</ele>
        <time>2020-03-20T00:33:20Z</time>
      </trkpt>
      <trkpt lat="41.81756" lon="9.20719">
        <ele>1293.752</ele>
        <time>2020-03-20T00:33:40Z</time>
      </trkpt>
      <trkpt lat="41.81724" lon="9.20695">
        <ele>1295.953</ele>
        <time>2020-03-20T00:34:00Z</time>
      </trkpt>
      <trkpt lat="41.81672" lon="9.20683">
        <ele>1292.908</ele>
        <time>2020-03-20T00:34:20Z</time>
      </trkpt>
      <trkpt lat="41.81642" lon="9.20666">
        <ele>1278.508</ele>
        <time>2020-03-20T00:34:40Z</time>
      </trkpt>
      <trkpt lat="41.81619" lon="9.20672">
        <ele>1296.669</ele>
        <time>2020-03-20T00:35:00Z</time>
      </trkpt>
      <trkpt lat="41.81574" lon="9.20629">
        <ele>1282.222</ele>
        <time>2020-03-20T00:35:20Z</time>
      </trkpt>
      <trkpt lat="41.81526" lon="9.20625">
        <ele>1286.794</ele>
        <time>2020-03-20T00:35:40Z</time>
      </trkpt>
      <trkpt lat="41.81508" lon="9.20584">
        <ele>1283.332</ele>
        <time>2020-03-20T00:36:00Z</time>
      </trkpt>
      <trkpt lat="41.81486" lon="9.20556">
        <ele>1274.156</ele>
        <time>2020-03-20T00:36:20Z</time>
      </trkpt>
      <trkpt lat="41.81455" lon="9.20564">
        <ele>1275.72</ele>
        <time>2020-03-20T00:36:40Z</time>
      </trkpt>
      <trkpt lat="41.81428" lon="9.20558">
        <ele>1277.413</ele>
        <time>2020-03-20T00:37:00Z</time>
      </trkpt>
      <trkpt lat="41.81401" lon="9.20542">
        <ele>1271.079</ele>
        <time>2020-03-20T00:37:20Z</time>
      </trkpt>
      <trkpt lat="41.81376" lon="9.20552">
        <ele>1271.034</ele>
        <time>2020-03-20T00:37:40Z</time>
      </trkpt>
      <trkpt lat="41.81349" lon="9.20552">
        <ele>1269.555</ele>
        <time>2020-03-20T00:38:00Z</time>
      </trkpt>
      <trkpt lat="41.81336" lon="9.20578">
        <ele>1276.11</ele>
        <time>2020-03-20T00:38:20Z</time>
      </trkpt>
      <trkpt lat="41.81299" lon="9.20586">
        <ele>1288.708</ele>
        <time>2020-03-20T00:38:40Z</time>
      </trkpt>
      <trkpt lat="41.81263" lon="9.20603">
        <ele>1289.597</ele>
        <time>2020-03-20T00:39:00Z</time>
      </trkpt>
      <trkpt lat="41.81251" lon="9.20565">
        <ele>1276.28</ele>
        <time>2020-03-20T00:39:20Z</time>
      </trkpt>
      <trkpt lat="41.81232" lon="9.20572">
        <ele>1290.132</ele>
        <time>2020-03-20T00:39:40Z</time>
      </trkpt>
      <trkpt lat="41.81205" lon="9.20573">
        <ele>1297.57</ele>
        <time>2020-03-20T00:40:00Z</time>
      </trkpt>
      <trkpt lat="41.81219" lon="9.20531">
        <ele>1293.814</ele>
        <time>2020-03-20T00:40:20Z</time>
      </trkpt>
      <trkpt lat="41.81247" lon="9.20508">
        <ele>1282.118</ele>
        <time>2020-03-20T00:40:40Z</time>
      </trkpt>
      <trkpt lat="41.81253" lon="9.20477">
        <ele>1264.031</ele>
        <time>2020-03-20T00:41:00Z</time>
      </trkpt>
      <trkpt lat="41.81228" lon="9.20414">
        <ele>1272.447</ele>
        <time>2020-03-20T00:41:20Z</time>
      </trkpt>
      <trkpt lat="41.81191" lon="9.20365">
        <ele>1272.815</ele>
        <time>2020-03-20T00:41:40Z</time>
      </trkpt>
      <trkpt lat="41.8116" lon="9.20335">
        <ele>1280.165</ele>
        <time>2020-03-20T00:42:00Z</time>
      </trkpt>
      <trkpt lat="41.81125" lon="9.20272">
        <ele>1271.111</ele>
        <time>2020-03-20T00:42:20Z</time>
      </trkpt>
      <trkpt lat="41.811" lon="9.20244">
        <ele>1261.708</ele>
        <time>2020-03-20T00:42:40Z</time>
      </trkpt>
      <trkpt lat="41.81051" lon="9.20144">
        <ele>1247.225</ele>
        <time>2020-03-20T00:43:00Z</time>
      </trkpt>
      <trkpt lat="41.80994" lon="9.20109">
        <ele>1255.358</ele>
        <time>2020-03-20T00:43:20Z</time>
      </trkpt>
      <trkpt lat="41.80967" lon="9.20095">
        <ele>1256.42</ele>
        <time>2020-03-20T00:43:40Z</time>
      </trkpt>
      <trkpt lat="41.80937" lon="9.20043">
        <ele>1229.078</ele>
        <time>2020-03-20T00:44:00Z</time>
      </trkpt>
      <trkpt lat="41.80916" lon="9.20037">
        <ele>1234.022</ele>
        <time>2020-03-20T00:44:20Z</time>
      </trkpt>
      <trkpt lat="41.80863" lon="9.20047">
        <ele>1239.246</ele>
        <time>2020-03-20T00:44:40Z</time>
      </trkpt>
      <trkpt lat="41.80828" lon="9.20032">
        <ele>1245.399</ele>
        <time>2020-03-20T00:45:00Z</time>
      </trkpt>
      <trkpt lat="41.80789" lon="9.20004">
        <ele>1248.135</ele>
        <time>2020-03-20T00:45:20Z</time>
      </trkpt>
      <trkpt lat="41.80702" lon="9.19896">
        <ele>1227.561</ele>
        <time>2020-03-20T00:45:40Z</time>
      </trkpt>
      <trkpt lat="41.80649" lon="9.19857">
        <ele>1243.321</ele>
        <time>2020-03-20T00:46:00Z</time>
      </trkpt>
      <trkpt lat="41.80642" lon="9.19827">
        <ele>1219.713</ele>
        <time>2020-03-20T00:46:20Z</time>
      </trkpt>
      <trkpt lat="41.8056" lon="9.19742">
        <ele>1209.408</ele>
        <time>2020-03-20T00:46:40Z</time>
      </trkpt>
      <trkpt lat="41.80484" lon="9.19681">
        <ele>1210.76</ele>
        <time>2020-03-20T00:47:00Z</time>
      </trkpt>
      <trkpt lat="41.80449" lon="9.19669">
        <ele>1213.873</ele>
        <time>2020-03-20T00:47:20Z</time>
      </trkpt>
      <trkpt lat="41.80418" lon="9.19596">
        <ele>1181.765</ele>
        <time>2020-03-20T00:47:40Z</time>
      </trkpt>
      <trkpt lat="41.80398" lon="9.19594">
        <ele>1186.973</ele>
        <time>2020-03-20T00:48:00Z</time>
      </trkpt>
      <trkpt lat="41.80378" lon="9.19599">
        <ele>1189.697</ele>
        <time>2020-03-20T00:48:20Z</time>
      </trkpt>
      <trkpt lat="41.80337" lon="9.19567">
        <ele>1168.761</ele>
        <time>2020-03-20T00:48:40Z</time>
      </trkpt>
      <trkpt lat="41.80319" lon="9.19567">
        <ele>1165.744</ele>
        <time>2020-03-20T00:49:00Z</time>
      </trkpt>
      <trkpt lat="41.80287" lon="9.19544">
        <ele>1158.53</ele>
        <time>2020-03-20T00:49:20Z</time>
      </trkpt>
      <trkpt lat="41.80243" lon="9.19537">
        <ele>1162.113</ele>
        <time>2020-03-20T00:49:40Z</time>
      </trkpt>
      <trkpt lat="41.80112" lon="9.19448">
        <ele>1141.843</ele>
        <time>2020-03-20T00:50:00Z</time>
      </trkpt>
      <trkpt lat="41.80094" lon="9.19446">
        <ele>1142.207</ele>
        <time>2020-03-20T00:50:20Z</time>
      </trkpt>
      <trkpt lat="41.80017" lon="9.1939">
        <ele>1121.708</ele>
        <time>2020-03-20T00:50:40Z</time>
      </trkpt>
      <trkpt lat="41.79993" lon="9.19386">
        <ele>1117.865</ele>
        <time>2020-03-20T00:51:00Z</time>
      </trkpt>
      <trkpt lat="41.79873" lon="9.1942">
        <ele>1126.278</ele>
        <time>2020-03-20T00:51:20Z</time>
      </trkpt>
      <trkpt lat="41.79842" lon="9.1941">
        <ele>1109.34</ele>
        <time>2020-03-20T00:51:40Z</time>
      </trkpt>
      <trkpt lat="41.7974" lon="9.1945">
        <ele>1103.688</ele>
        <time>2020-03-20T00:52:00Z</time>
      </trkpt>
      <trkpt lat="41.79725" lon="9.19442">
        <ele>1101.342</ele>
        <time>2020-03-20T00:52:20Z</time>
      </trkpt>
      <trkpt lat="41.797" lon="9.19419">
        <ele>1095.226</ele>
        <time>2020-03-20T00:52:40Z</time>
      </trkpt>
      <trkpt lat="41.79686" lon="9.19386">
        <ele>1080.359</ele>
        <time>2020-03-20T00:53:00Z</time>
      </trkpt>
      <trkpt lat="41.79654" lon="9.19368">
        <ele>1060.525</ele>
        <time>2020-03-20T00:53:20Z</time>
      </trkpt>
      <trkpt lat="41.79651" lon="9.19351">
        <ele>1059.612</ele>
        <time>2020-03-20T00:53:40Z</time>
      </trkpt>
      <trkpt lat="41.79634" lon="9.19353">
        <ele>1056.932</ele>
        <time>2020-03-20T00:54:00Z</time>
      </trkpt>
      <trkpt lat="41.79599" lon="9.19402">
        <ele>1052.105</ele>
        <time>2020-03-20T00:54:20Z</time>
      </trkpt>
      <trkpt lat="41.79564" lon="9.1949">
        <ele>1044.608</ele>
        <time>2020-03-20T00:54:40Z</time>
      </trkpt>
      <trkpt lat="41.79549" lon="9.19502">
        <ele>1045.615</ele>
        <time>2020-03-20T00:55:00Z</time>
      </trkpt>
      <trkpt lat="41.79502" lon="9.19675">
        <ele>1042.138</ele>
        <time>2020-03-20T00:55:20Z</time>
      </trkpt>
      <trkpt lat="41.79544" lon="9.19809">
        <ele>1039.75</ele>
        <time>2020-03-20T00:55:40Z</time>
      </trkpt>
      <trkpt lat="41.79551" lon="9.19851">
        <ele>1033.798</ele>
        <time>2020-03-20T00:56:00Z</time>
      </trkpt>
      <trkpt lat="41.79573" lon="9.19869">
        <ele>1035.262</ele>
        <time>2020-03-20T00:56:20Z</time>
      </trkpt>
      <trkpt lat="41.79627" lon="9.19959">
        <ele>1048.436</ele>
        <time>2020-03-20T00:56:40Z</time>
      </trkpt>
      <trkpt lat="41.79614" lon="9.19997">
        <ele>1043.089</ele>
        <time>2020-03-20T00:57:00Z</time>
      </trkpt>
      <trkpt lat="41.79614" lon="9.20028">
        <ele>1049.615</ele>
        <time>2020-03-20T00:57:20Z</time>
      </trkpt>
      <trkpt lat="41.79528" lon="9.20104">
        <ele>1048.191</ele>
        <time>2020-03-20T00:57:40Z</time>
      </trkpt>
      <trkpt lat="41.79469" lon="9.20124">
        <ele>1031.381</ele>
        <time>2020-03-20T00:58:00Z</time>
      </trkpt>
      <trkpt lat="41.79448" lon="9.20164">
        <ele>1031.819</ele>
        <time>2020-03-20T00:58:20Z</time>
      </trkpt>
      <trkpt lat="41.79448" lon="9.20212">
        <ele>1034.708</ele>
        <time>2020-03-20T00:58:40Z</time>
      </trkpt>
      <trkpt lat="41.79482" lon="9.20228">
        <ele>1040.483</ele>
        <time>2020-03-20T00:59:00Z</time>
      </trkpt>
      <trkpt lat="41.79492" lon="9.20269">
        <ele>1028.936</ele>
        <time>2020-03-20T00:59:20Z</time>
      </trkpt>
      <trkpt lat="41.79548" lon="9.2031">
        <ele>1042.278</ele>
        <time>2020-03-20T00:59:40Z</time>
      </trkpt>
      <trkpt lat="41.79604" lon="9.20327">
        <ele>1061.616</ele>
        <time>2020-03-20T01:00:00Z</time>
      </trkpt>
      <trkpt lat="41.7966" lon="9.204">
        <ele>1037.67</ele>
        <time>2020-03-20T01:00:20Z</time>
      </trkpt>
      <trkpt lat="41.79727" lon="9.20427">
        <ele>1040.974</ele>
        <time>2020-03-20T01:00:40Z</time>
      </trkpt>
      <trkpt lat="41.79804" lon="9.20478">
        <ele>1055.157</ele>
        <time>2020-03-20T01:01:00Z</time>
      </trkpt>
      <trkpt lat="41.79838" lon="9.20492">
        <ele>1064.043</ele>
        <time>2020-03-20T01:01:20Z</time>
      </trkpt>
      <trkpt lat="41.79871" lon="9.20543">
        <ele>1054.396</ele>
        <time>2020-03-20T01:01:40Z</time>
      </trkpt>
      <trkpt lat="41.79908" lon="9.20562">
        <ele>1057.331</ele>
        <time>2020-03-20T01:02:00Z</time>
      </trkpt>
      <trkpt lat="41.7992" lon="9.20603">
        <ele>1070.124</ele>
        <time>2020-03-20T01:02:20Z</time>
      </trkpt>
      <trkpt lat="41.79915" lon="9.20652">
        <ele>1057.608</ele>
        <time>2020-03-20T01:02:40Z</time>
      </trkpt>
      <trkpt lat="41.799" lon="9.20688">
        <ele>1069.723</ele>
        <time>2020-03-20T01:03:00Z</time>
      </trkpt>
      <trkpt lat="41.79868" lon="9.20692">
        <ele>1069.446</ele>
        <time>2020-03-20T01:03:20Z</time>
      </trkpt>
      <trkpt lat="41.79826" lon="9.20726">
        <ele>1072.978</ele>
        <time>2020-03-20T01:03:40Z</time>
      </trkpt>
      <trkpt lat="41.79774" lon="9.20725">
        <ele>1067.036</ele>
        <time>2020-03-20T01:04:00Z</time>
      </trkpt>
      <trkpt lat="41.79752" lon="9.20733">
        <ele>1071.04</ele>
        <time>2020-03-20T01:04:20Z</time>
      </trkpt>
      <trkpt lat="41.79724" lon="9.20729">
        <ele>1055.524</ele>
        <time>2020-03-20T01:04:40Z</time>
      </trkpt>
      <trkpt lat="41.79634" lon="9.20811">
        <ele>1056.927</ele>
        <time>2020-03-20T01:05:00Z</time>
      </trkpt>
      <trkpt lat="41.79586" lon="9.20882">
        <ele>1055.573</ele>
        <time>2020-03-20T01:05:20Z</time>
      </trkpt>
      <trkpt lat="41.79564" lon="9.20945">
        <ele>1043.774</ele>
        <time>2020-03-20T01:05:40Z</time>
      </trkpt>
      <trkpt lat="41.79538" lon="9.20945">
        <ele>1039.156</ele>
        <time>2020-03-20T01:06:00Z</time>
      </trkpt>
      <trkpt lat="41.79501" lon="9.20978">
        <ele>1040.321</ele>
        <time>2020-03-20T01:06:20Z</time>
      </trkpt>
      <trkpt lat="41.7938" lon="9.2103">
        <ele>1029.808</ele>
        <time>2020-03-20T01:06:40Z</time>
      </trkpt>
      <trkpt lat="41.79301" lon="9.21032">
        <ele>1026.011</ele>
        <time>2020-03-20T01:07:00Z</time>
      </trkpt>
      <trkpt lat="41.79205" lon="9.21054">
        <ele>1019.424</ele>
        <time>2020-03-20T01:07:20Z</time>
      </trkpt>
      <trkpt lat="41.79177" lon="9.21073">
        <ele>1023.186</ele>
        <time>2020-03-20T01:07:40Z</time>
      </trkpt>
      <trkpt lat="41.79161" lon="9.21097">
        <ele>1026.514</ele>
        <time>2020-03-20T01:08:00Z</time>
      </trkpt>
      <trkpt lat="41.79128" lon="9.21134">
        <ele>1025.128</ele>
        <time>2020-03-20T01:08:20Z</time>
      </trkpt>
      <trkpt lat="41.79125" lon="9.21152">
        <ele>1026.182</ele>
        <time>2020-03-20T01:08:40Z</time>
      </trkpt>
      <trkpt lat="41.79159" lon="9.21261">
        <ele>1035.475</ele>
        <time>2020-03-20T01:09:00Z</time>
      </trkpt>
      <trkpt lat="41.7923" lon="9.21332">
        <ele>1055.671</ele>
        <time>2020-03-20T01:09:20Z</time>
      </trkpt>
      <trkpt lat="41.79252" lon="9.21393">
        <ele>1060.914</ele>
        <time>2020-03-20T01:09:40Z</time>
      </trkpt>
      <trkpt lat="41.79271" lon="9.21411">
        <ele>1061.154</ele>
        <time>2020-03-20T01:10:00Z</time>
      </trkpt>
      <trkpt lat="41.79297" lon="9.21455">
        <ele>1062.709</ele>
        <time>2020-03-20T01:10:20Z</time>
      </trkpt>
      <trkpt lat="41.79306" lon="9.21493">
        <ele>1065.608</ele>
        <time>2020-03-20T01:10:40Z</time>
      </trkpt>
      <trkpt lat="41.79292" lon="9.21557">
        <ele>1057.835</ele>
        <time>2020-03-20T01:11:00Z</time>
      </trkpt>
      <trkpt lat="41.79297" lon="9.21595">
        <ele>1058.878</ele>
        <time>2020-03-20T01:11:20Z</time>
      </trkpt>
      <trkpt lat="41.79297" lon="9.21614">
        <ele>1057.76</ele>
        <time>2020-03-20T01:11:40Z</time>
      </trkpt>
      <trkpt lat="41.79318" lon="9.21645">
        <ele>1061.568</ele>
        <time>2020-03-20T01:12:00Z</time>
      </trkpt>
      <trkpt lat="41.79348" lon="9.21663">
        <ele>1080.362</ele>
        <time>2020-03-20T01:12:20Z</time>
      </trkpt>
      <trkpt lat="41.79362" lon="9.21666">
        <ele>1086.436</ele>
        <time>2020-03-20T01:12:40Z</time>
      </trkpt>
      <trkpt lat="41.79411" lon="9.21707">
        <ele>1077.149</ele>
        <time>2020-03-20T01:13:00Z</time>
      </trkpt>
      <trkpt lat="41.79446" lon="9.21723">
        <ele>1101.655</ele>
        <time>2020-03-20T01:13:20Z</time>
      </trkpt>
      <trkpt lat="41.79498" lon="9.21761">
        <ele>1105.231</ele>
        <time>2020-03-20T01:13:40Z</time>
      </trkpt>
      <trkpt lat="41.79505" lon="9.21779">
        <ele>1123.861</ele>
        <time>2020-03-20T01:14:00Z</time>
      </trkpt>
      <trkpt lat="41.79501" lon="9.21851">
        <ele>1114.507</ele>
        <time>2020-03-20T01:14:20Z</time>
      </trkpt>
      <trkpt lat="41.79586" lon="9.21959">
        <ele>1163.308</ele>
        <time>2020-03-20T01:14:40Z</time>
      </trkpt>
      <trkpt lat="41.79598" lon="9.21987">
        <ele>1158.757</ele>
        <time>2020-03-20T01:15:00Z</time>
      </trkpt>
      <trkpt lat="41.79629" lon="9.22035">
        <ele>1167.28</ele>
        <time>2020-03-20T01:15:20Z</time>
      </trkpt>
      <trkpt lat="41.79639" lon="9.22057">
        <ele>1168.922</ele>
        <time>2020-03-20T01:15:40Z</time>
      </trkpt>
      <trkpt lat="41.79651" lon="9.22071">
        <ele>1172.67</ele>
        <time>2020-03-20T01:16:00Z</time>
      </trkpt>
      <trkpt lat="41.79659" lon="9.22106">
        <ele>1175.644</ele>
        <time>2020-03-20T01:16:20Z</time>
      </trkpt>
      <trkpt lat="41.79697" lon="9.22156">
        <ele>1203.268</ele>
        <time>2020-03-20T01:16:40Z</time>
      </trkpt>
      <trkpt lat="41.79706" lon="9.22211">
        <ele>1211.851</ele>
        <time>2020-03-20T01:17:00Z</time>
      </trkpt>
      <trkpt lat="41.79725" lon="9.22159">
        <ele>1212.567</ele>
        <time>2020-03-20T01:17:20Z</time>
      </trkpt>
      <trkpt lat="41.79725" lon="9.22192">
        <ele>1214.634</ele>
        <time>2020-03-20T01:17:40Z</time>
      </trkpt>
      <trkpt lat="41.79709" lon="9.2228">
        <ele>1218.855</ele>
        <time>2020-03-20T01:18:00Z</time>
      </trkpt>
      <trkpt lat="41.79683" lon="9.22323">
        <ele>1217.41</ele>
        <time>2020-03-20T01:18:20Z</time>
      </trkpt>
      <trkpt lat="41.79667" lon="9.22357">
        <ele>1216.008</ele>
        <time>2020-03-20T01:18:40Z</time>
      </trkpt>
      <trkpt lat="41.79635" lon="9.22391">
        <ele>1216.467</ele>
        <time>2020-03-20T01:19:00Z</time>
      </trkpt>
      <trkpt lat="41.79605" lon="9.22442">
        <ele>1217.94</ele>
        <time>2020-03-20T01:19:20Z</time>
      </trkpt>
      <trkpt lat="41.79596" lon="9.22472">
        <ele>1218.982</ele>
        <time>2020-03-20T01:19:40Z</time>
      </trkpt>
      <trkpt lat="41.79583" lon="9.22488">
        <ele>1222.72</ele>
        <time>2020-03-20T01:20:00Z</time>
      </trkpt>
      <trkpt lat="41.7959" lon="9.22582">
        <ele>1219.734</ele>
        <time>2020-03-20T01:20:20Z</time>
      </trkpt>
      <trkpt lat="41.79584" lon="9.22658">
        <ele>1210.618</ele>
        <time>2020-03-20T01:20:40Z</time>
      </trkpt>
      <trkpt lat="41.79517" lon="9.22783">
        <ele>1201.451</ele>
        <time>2020-03-20T01:21:00Z</time>
      </trkpt>
      <trkpt lat="41.79509" lon="9.22837">
        <ele>1195.957</ele>
        <time>2020-03-20T01:21:20Z</time>
      </trkpt>
      <trkpt lat="41.79486" lon="9.22876">
        <ele>1200.832</ele>
        <time>2020-03-20T01:21:40Z</time>
      </trkpt>
      <trkpt lat="41.79468" lon="9.2289">
        <ele>1201.392</ele>
        <time>2020-03-20T01:22:00Z</time>
      </trkpt>
      <trkpt lat="41.79473" lon="9.22919">
        <ele>1191.111</ele>
        <time>2020-03-20T01:22:20Z</time>
      </trkpt>
      <trkpt lat="41.79458" lon="9.22968">
        <ele>1188.508</ele>
        <time>2020-03-20T01:22:40Z</time>
      </trkpt>
      <trkpt lat="41.79443" lon="9.22974">
        <ele>1188.947</ele>
        <time>2020-03-20T01:23:00Z</time>
      </trkpt>
      <trkpt lat="41.79427" lon="9.22959">
        <ele>1191.67</ele>
        <time>2020-03-20T01:23:20Z</time>
      </trkpt>
      <trkpt lat="41.79415" lon="9.2296">
        <ele>1201.242</ele>
        <time>2020-03-20T01:23:40Z</time>
      </trkpt>
      <trkpt lat="41.79384" lon="9.23002">
        <ele>1184.92</ele>
        <time>2020-03-20T01:24:00Z</time>
      </trkpt>
      <trkpt lat="41.79299" lon="9.23054">
        <ele>1189.814</ele>
        <time>2020-03-20T01:24:20Z</time>
      </trkpt>
      <trkpt lat="41.79231" lon="9.23043">
        <ele>1203.588</ele>
        <time>2020-03-20T01:24:40Z</time>
      </trkpt>
      <trkpt lat="41.79204" lon="9.23051">
        <ele>1205.331</ele>
        <time>2020-03-20T01:25:00Z</time>
      </trkpt>
      <trkpt lat="41.79188" lon="9.23068">
        <ele>1205.317</ele>
        <time>2020-03-20T01:25:20Z</time>
      </trkpt>
      <trkpt lat="41.79195" lon="9.23132">
        <ele>1186.696</ele>
        <time>2020-03-20T01:25:40Z</time>
      </trkpt>
      <trkpt lat="41.79175" lon="9.23182">
        <ele>1181.131</ele>
        <time>2020-03-20T01:26:00Z</time>
      </trkpt>
      <trkpt lat="41.79119" lon="9.23245">
        <ele>1186.424</ele>
        <time>2020-03-20T01:26:20Z</time>
      </trkpt>
      <trkpt lat="41.79078" lon="9.23245">
        <ele>1187.808</ele>
        <time>2020-03-20T01:26:40Z</time>
      </trkpt>
      <trkpt lat="41.79085" lon="9.2329">
        <ele>1177.353</ele>
        <time>2020-03-20T01:27:00Z</time>
      </trkpt>
      <trkpt lat="41.79067" lon="9.23324">
        <ele>1180.076</ele>
        <time>2020-03-20T01:27:20Z</time>
      </trkpt>
      <trkpt lat="41.79076" lon="9.23383">
        <ele>1170.918</ele>
        <time>2020-03-20T01:27:40Z</time>
      </trkpt>
      <trkpt lat="41.7907" lon="9.23426">
        <ele>1160.536</ele>
        <time>2020-03-20T01:28:00Z</time>
      </trkpt>
      <trkpt lat="41.79055" lon="9.23452">
        <ele>1156.16</ele>
        <time>2020-03-20T01:28:20Z</time>
      </trkpt>
      <trkpt lat="41.79043" lon="9.23508">
        <ele>1134.594</ele>
        <time>2020-03-20T01:28:40Z</time>
      </trkpt>
      <trkpt lat="41.78997" lon="9.23553">
        <ele>1125.867</ele>
        <time>2020-03-20T01:29:00Z</time>
      </trkpt>
      <trkpt lat="41.78963" lon="9.23562">
        <ele>1124.133</ele>
        <time>2020-03-20T01:29:20Z</time>
      </trkpt>
      <trkpt lat="41.78946" lon="9.23585">
        <ele>1104.127</ele>
        <time>2020-03-20T01:29:40Z</time>
      </trkpt>
      <trkpt lat="41.7894" lon="9.23642">
        <ele>1095.868</ele>
        <time>2020-03-20T01:30:00Z</time>
      </trkpt>
      <trkpt lat="41.78948" lon="9.23745">
        <ele>1070.814</ele>
        <time>2020-03-20T01:30:20Z</time>
      </trkpt>
      <trkpt lat="41.78961" lon="9.23796">
        <ele>1055.108</ele>
        <time>2020-03-20T01:30:40Z</time>
      </trkpt>
      <trkpt lat="41.78979" lon="9.23825">
        <ele>1052.436</ele>
        <time>2020-03-20T01:31:00Z</time>
      </trkpt>
      <trkpt lat="41.78978" lon="9.23846">
        <ele>1043.029</ele>
        <time>2020-03-20T01:31:20Z</time>
      </trkpt>
      <trkpt lat="41.78959" lon="9.23855">
        <ele>1041.171</ele>
        <time>2020-03-20T01:31:40Z</time>
      </trkpt>
      <trkpt lat="41.78943" lon="9.23845">
        <ele>1041.699</ele>
        <time>2020-03-20T01:32:00Z</time>
      </trkpt>
      <trkpt lat="41.78909" lon="9.23873">
        <ele>1038.413</ele>
        <time>2020-03-20T01:32:20Z</time>
      </trkpt>
      <trkpt lat="41.78878" lon="9.23842">
        <ele>1041.367</ele>
        <time>2020-03-20T01:32:40Z</time>
      </trkpt>
      <trkpt lat="41.7883" lon="9.23866">
        <ele>1045.51</ele>
        <time>2020-03-20T01:33:00Z</time>
      </trkpt>
      <trkpt lat="41.78797" lon="9.23874">
        <ele>1046.596</ele>
        <time>2020-03-20T01:33:20Z</time>
      </trkpt>
      <trkpt lat="41.78803" lon="9.239">
        <ele>1044.942</ele>
        <time>2020-03-20T01:33:40Z</time>
      </trkpt>
      <trkpt lat="41.7886" lon="9.23925">
        <ele>1034.222</ele>
        <time>2020-03-20T01:34:00Z</time>
      </trkpt>
      <trkpt lat="41.78877" lon="9.23959">
        <ele>1033.314</ele>
        <time>2020-03-20T01:34:20Z</time>
      </trkpt>
      <trkpt lat="41.78879" lon="9.24008">
        <ele>1035.808</ele>
        <time>2020-03-20T01:34:40Z</time>
      </trkpt>
      <trkpt lat="41.78871" lon="9.24027">
        <ele>1037.998</ele>
        <time>2020-03-20T01:35:00Z</time>
      </trkpt>
      <trkpt lat="41.78873" lon="9.24102">
        <ele>1045.141</ele>
        <time>2020-03-20T01:35:20Z</time>
      </trkpt>
      <trkpt lat="41.78866" lon="9.24115">
        <ele>1047.243</ele>
        <time>2020-03-20T01:35:40Z</time>
      </trkpt>
      <trkpt lat="41.78873" lon="9.24142">
        <ele>1047.731</ele>
        <time>2020-03-20T01:36:00Z</time>
      </trkpt>
      <trkpt lat="41.78893" lon="9.24165">
        <ele>1043.765</ele>
        <time>2020-03-20T01:36:20Z</time>
      </trkpt>
      <trkpt lat="41.7888" lon="9.24199">
        <ele>1059.429</ele>
        <time>2020-03-20T01:36:40Z</time>
      </trkpt>
      <trkpt lat="41.78896" lon="9.24226">
        <ele>1059.522</ele>
        <time>2020-03-20T01:37:00Z</time>
      </trkpt>
      <trkpt lat="41.78885" lon="9.24243">
        <ele>1062.158</ele>
        <time>2020-03-20T01:37:20Z</time>
      </trkpt>
      <trkpt lat="41.78899" lon="9.24262">
        <ele>1073.036</ele>
        <time>2020-03-20T01:37:40Z</time>
      </trkpt>
      <trkpt lat="41.78897" lon="9.24274">
        <ele>1077.317</ele>
        <time>2020-03-20T01:38:00Z</time>
      </trkpt>
      <trkpt lat="41.78909" lon="9.24308">
        <ele>1083.318</ele>
        <time>2020-03-20T01:38:20Z</time>
      </trkpt>
      <trkpt lat="41.78921" lon="9.24315">
        <ele>1069.308</ele>
        <time>2020-03-20T01:38:40Z</time>
      </trkpt>
      <trkpt lat="41.78964" lon="9.24404">
        <ele>1091.137</ele>
        <time>2020-03-20T01:39:00Z</time>
      </trkpt>
      <trkpt lat="41.79019" lon="9.24486">
        <ele>1089.75</ele>
        <time>2020-03-20T01:39:20Z</time>
      </trkpt>
      <trkpt lat="41.79006" lon="9.24512">
        <ele>1106.632</ele>
        <time>2020-03-20T01:39:40Z</time>
      </trkpt>
      <trkpt lat="41.7902" lon="9.24528">
        <ele>1104.06</ele>
        <time>2020-03-20T01:40:00Z</time>
      </trkpt>
      <trkpt lat="41.79004" lon="9.24558">
        <ele>1113.484</ele>
        <time>2020-03-20T01:40:20Z</time>
      </trkpt>
      <trkpt lat="41.79028" lon="9.24555">
        <ele>1106.718</ele>
        <time>2020-03-20T01:40:40Z</time>
      </trkpt>
      <trkpt lat="41.79057" lon="9.24582">
        <ele>1100.761</ele>
        <time>2020-03-20T01:41:00Z</time>
      </trkpt>
      <trkpt lat="41.79009" lon="9.24582">
        <ele>1123.527</ele>
        <time>2020-03-20T01:41:20Z</time>
      </trkpt>
      <trkpt lat="41.79042" lon="9.24602">
        <ele>1126.677</ele>
        <time>2020-03-20T01:41:40Z</time>
      </trkpt>
      <trkpt lat="41.79049" lon="9.24628">
        <ele>1130.161</ele>
        <time>2020-03-20T01:42:00Z</time>
      </trkpt>
      <trkpt lat="41.79035" lon="9.24622">
        <ele>1131.627</ele>
        <time>2020-03-20T01:42:20Z</time>
      </trkpt>
      <trkpt lat="41.79037" lon="9.24637">
        <ele>1134.508</ele>
        <time>2020-03-20T01:42:40Z</time>
      </trkpt>
      <trkpt lat="41.79097" lon="9.24674">
        <ele>1135.621</ele>
        <time>2020-03-20T01:43:00Z</time>
      </trkpt>
      <trkpt lat="41.79138" lon="9.24728">
        <ele>1138.144</ele>
        <time>2020-03-20T01:43:20Z</time>
      </trkpt>
      <trkpt lat="41.79149" lon="9.24759">
        <ele>1153.156</ele>
        <time>2020-03-20T01:43:40Z</time>
      </trkpt>
      <trkpt lat="41.79148" lon="9.24778">
        <ele>1159.174</ele>
        <time>2020-03-20T01:44:00Z</time>
      </trkpt>
      <trkpt lat="41.7913" lon="9.24775">
        <ele>1162.478</ele>
        <time>2020-03-20T01:44:20Z</time>
      </trkpt>
      <trkpt lat="41.79124" lon="9.24791">
        <ele>1166.012</ele>
        <time>2020-03-20T01:44:40Z</time>
      </trkpt>
      <trkpt lat="41.79114" lon="9.24788">
        <ele>1167.195</ele>
        <time>2020-03-20T01:45:00Z</time>
      </trkpt>
      <trkpt lat="41.79117" lon="9.24811">
        <ele>1170.311</ele>
        <time>2020-03-20T01:45:20Z</time>
      </trkpt>
      <trkpt lat="41.79098" lon="9.24794">
        <ele>1170.024</ele>
        <time>2020-03-20T01:45:40Z</time>
      </trkpt>
      <trkpt lat="41.79097" lon="9.24819">
        <ele>1176.204</ele>
        <time>2020-03-20T01:46:00Z</time>
      </trkpt>
      <trkpt lat="41.79085" lon="9.24828">
        <ele>1183.714</ele>
        <time>2020-03-20T01:46:20Z</time>
      </trkpt>
      <trkpt lat="41.7908" lon="9.24822">
        <ele>1185.808</ele>
        <time>2020-03-20T01:46:40Z</time>
      </trkpt>
      <trkpt lat="41.79069" lon="9.2483">
        <ele>1185.986</ele>
        <time>2020-03-20T01:47:00Z</time>
      </trkpt>
      <trkpt lat="41.79053" lon="9.24819">
        <ele>1184.899</ele>
        <time>2020-03-20T01:47:20Z</time>
      </trkpt>
      <trkpt lat="41.79052" lon="9.24831">
        <ele>1185.391</ele>
        <time>2020-03-20T01:47:40Z</time>
      </trkpt>
      <trkpt lat="41.79043" lon="9.24832">
        <ele>1185.499</ele>
        <time>2020-03-20T01:48:00Z</time>
      </trkpt>
      <trkpt lat="41.79041" lon="9.24848">
        <ele>1169.683</ele>
        <time>2020-03-20T01:48:20Z</time>
      </trkpt>
      <trkpt lat="41.79025" lon="9.24831">
        <ele>1186.177</ele>
        <time>2020-03-20T01:48:40Z</time>
      </trkpt>
      <trkpt lat="41.79018" lon="9.24866">
        <ele>1163.49</ele>
        <time>2020-03-20T01:49:00Z</time>
      </trkpt>
      <trkpt lat="41.79039" lon="9.24889">
        <ele>1156.816</ele>
        <time>2020-03-20T01:49:20Z</time>
      </trkpt>
      <trkpt lat="41.79039" lon="9.24909">
        <ele>1151.737</ele>
        <time>2020-03-20T01:49:40Z</time>
      </trkpt>
      <trkpt lat="41.79018" lon="9.24913">
        <ele>1139.249</ele>
        <time>2020-03-20T01:50:00Z</time>
      </trkpt>
      <trkpt lat="41.79011" lon="9.24906">
        <ele>1136.813</ele>
        <time>2020-03-20T01:50:20Z</time>
      </trkpt>
      <trkpt lat="41.79005" lon="9.24911">
        <ele>1126.308</ele>
        <time>2020-03-20T01:50:40Z</time>
      </trkpt>
      <trkpt lat="41.78998" lon="9.24905">
        <ele>1124.777</ele>
        <time>2020-03-20T01:51:00Z</time>
      </trkpt>
      <trkpt lat="41.78989" lon="9.24904">
        <ele>1127.04</ele>
        <time>2020-03-20T01:51:20Z</time>
      </trkpt>
      <trkpt lat="41.78989" lon="9.24891">
        <ele>1134.562</ele>
        <time>2020-03-20T01:51:40Z</time>
      </trkpt>
      <trkpt lat="41.78963" lon="9.24866">
        <ele>1146.67</ele>
        <time>2020-03-20T01:52:00Z</time>
      </trkpt>
      <trkpt lat="41.78945" lon="9.24874">
        <ele>1140.024</ele>
        <time>2020-03-20T01:52:20Z</time>
      </trkpt>
      <trkpt lat="41.78974" lon="9.24938">
        <ele>1080.478</ele>
        <time>2020-03-20T01:52:40Z</time>
      </trkpt>
      <trkpt lat="41.79025" lon="9.24972">
        <ele>1094.681</ele>
        <time>2020-03-20T01:53:00Z</time>
      </trkpt>
      <trkpt lat="41.79036" lon="9.2497">
        <ele>1098.437</ele>
        <time>2020-03-20T01:53:20Z</time>
      </trkpt>
      <trkpt lat="41.79029" lon="9.25028">
        <ele>1046.893</ele>
        <time>2020-03-20T01:53:40Z</time>
      </trkpt>
      <trkpt lat="41.79044" lon="9.25042">
        <ele>1044.965</ele>
        <time>2020-03-20T01:54:00Z</time>
      </trkpt>
      <trkpt lat="41.79097" lon="9.25064">
        <ele>1065.121</ele>
        <time>2020-03-20T01:54:20Z</time>
      </trkpt>
      <trkpt lat="41.79127" lon="9.25117">
        <ele>1034.908</ele>
        <time>2020-03-20T01:54:40Z</time>
      </trkpt>
      <trkpt lat="41.79157" lon="9.2517">
        <ele>1017.423</ele>
        <time>2020-03-20T01:55:00Z</time>
      </trkpt>
      <trkpt lat="41.79186" lon="9.25202">
        <ele>1035.856</ele>
        <time>2020-03-20T01:55:20Z</time>
      </trkpt>
      <trkpt lat="41.79202" lon="9.25243">
        <ele>1031.168</ele>
        <time>2020-03-20T01:55:40Z</time>
      </trkpt>
      <trkpt lat="41.79226" lon="9.25267">
        <ele>1023.026</ele>
        <time>2020-03-20T01:56:00Z</time>
      </trkpt>
      <trkpt lat="41.7923" lon="9.25297">
        <ele>1018.78</ele>
        <time>2020-03-20T01:56:20Z</time>
      </trkpt>
      <trkpt lat="41.79224" lon="9.25313">
        <ele>1016.324</ele>
        <time>2020-03-20T01:56:40Z</time>
      </trkpt>
      <trkpt lat="41.79242" lon="9.25402">
        <ele>1008.227</ele>
        <time>2020-03-20T01:57:00Z</time>
      </trkpt>
      <trkpt lat="41.79235" lon="9.25433">
        <ele>1005.863</ele>
        <time>2020-03-20T01:57:20Z</time>
      </trkpt>
      <trkpt lat="41.79239" lon="9.25478">
        <ele>1008.481</ele>
        <time>2020-03-20T01:57:40Z</time>
      </trkpt>
      <trkpt lat="41.79225" lon="9.25505">
        <ele>1014.661</ele>
        <time>2020-03-20T01:58:00Z</time>
      </trkpt>
      <trkpt lat="41.79206" lon="9.25505">
        <ele>1008.917</ele>
        <time>2020-03-20T01:58:20Z</time>
      </trkpt>
      <trkpt lat="41.79184" lon="9.25556">
        <ele>1008.608</ele>
        <time>2020-03-20T01:58:40Z</time>
      </trkpt>
      <trkpt lat="41.79199" lon="9.25681">
        <ele>1016.522</ele>
        <time>2020-03-20T01:59:00Z</time>
      </trkpt>
      <trkpt lat="41.79228" lon="9.25763">
        <ele>1025.845</ele>
        <time>2020-03-20T01:59:20Z</time>
      </trkpt>
      <trkpt lat="41.79254" lon="9.25796">
        <ele>1042.747</ele>
        <time>2020-03-20T01:59:40Z</time>
      </trkpt>
      <trkpt lat="41.79314" lon="9.25817">
        <ele>1047.085</ele>
        <time>2020-03-20T02:00:00Z</time>
      </trkpt>
      <trkpt lat="41.79354" lon="9.25798">
        <ele>1060.789</ele>
        <time>2020-03-20T02:00:20Z</time>
      </trkpt>
      <trkpt lat="41.79378" lon="9.25814">
        <ele>1061.483</ele>
        <time>2020-03-20T02:00:40Z</time>
      </trkpt>
      <trkpt lat="41.79404" lon="9.25822">
        <ele>1062.526</ele>
        <time>2020-03-20T02:01:00Z</time>
      </trkpt>
      <trkpt lat="41.79411" lon="9.25841">
        <ele>1057.362</ele>
        <time>2020-03-20T02:01:20Z</time>
      </trkpt>
      <trkpt lat="41.79416" lon="9.25875">
        <ele>1050.779</ele>
        <time>2020-03-20T02:01:40Z</time>
      </trkpt>
      <trkpt lat="41.79429" lon="9.25911">
        <ele>1055.005</ele>
        <time>2020-03-20T02:02:00Z</time>
      </trkpt>
      <trkpt lat="41.79432" lon="9.25952">
        <ele>1051.125</ele>
        <time>2020-03-20T02:02:20Z</time>
      </trkpt>
    </trkseg>
  </trk>
</gpx>